sensor_id;sensor_type;location;lat;lon;timestamp;P1;durP1;ratioP1;P2;durP2;ratioP2
20170;SDS011;10245;51.344;6.620;2023-11-19T00:00:05;5.80;;;3.47;;
20170;SDS011;10245;51.344;6.620;2023-11-19T00:02:33;4.25;;;3.80;;
20170;SDS011;10245;51.344;6.620;2023-11-19T00:04:56;6.25;;;4.00;;
20170;SDS011;10245;51.344;6.620;2023-11-19T00:07:19;4.63;;;3.67;;
20170;SDS011;10245;51.344;6.620;2023-11-19T00:09:46;4.25;;;3.50;;
20170;SDS011;10245;51.344;6.620;2023-11-19T00:12:09;4.22;;;3.80;;
20170;SDS011;10245;51.344;6.620;2023-11-19T00:14:35;6.10;;;3.50;;
20170;SDS011;10245;51.344;6.620;2023-11-19T00:16:59;6.03;;;3.75;;
20170;SDS011;10245;51.344;6.620;2023-11-19T00:19:22;4.78;;;3.30;;
20170;SDS011;10245;51.344;6.620;2023-11-19T00:21:46;6.45;;;3.30;;
20170;SDS011;10245;51.344;6.620;2023-11-19T00:24:09;5.97;;;3.60;;
20170;SDS011;10245;51.344;6.620;2023-11-19T00:26:33;5.30;;;3.50;;
20170;SDS011;10245;51.344;6.620;2023-11-19T00:28:57;6.63;;;4.10;;
20170;SDS011;10245;51.344;6.620;2023-11-19T00:31:21;5.50;;;4.10;;
20170;SDS011;10245;51.344;6.620;2023-11-19T00:33:46;4.53;;;4.18;;
20170;SDS011;10245;51.344;6.620;2023-11-19T00:36:11;5.38;;;4.35;;
20170;SDS011;10245;51.344;6.620;2023-11-19T00:38:34;6.13;;;4.30;;
20170;SDS011;10245;51.344;6.620;2023-11-19T00:40:57;5.55;;;3.85;;
20170;SDS011;10245;51.344;6.620;2023-11-19T00:43:21;6.13;;;3.83;;
20170;SDS011;10245;51.344;6.620;2023-11-19T00:45:45;4.88;;;4.43;;
20170;SDS011;10245;51.344;6.620;2023-11-19T00:48:11;7.30;;;4.70;;
20170;SDS011;10245;51.344;6.620;2023-11-19T00:50:37;7.43;;;5.60;;
20170;SDS011;10245;51.344;6.620;2023-11-19T00:53:04;7.75;;;5.00;;
20170;SDS011;10245;51.344;6.620;2023-11-19T00:55:27;8.23;;;5.45;;
20170;SDS011;10245;51.344;6.620;2023-11-19T00:57:50;9.32;;;5.30;;
20170;SDS011;10245;51.344;6.620;2023-11-19T01:00:15;7.70;;;6.22;;
20170;SDS011;10245;51.344;6.620;2023-11-19T01:02:41;5.88;;;5.28;;
20170;SDS011;10245;51.344;6.620;2023-11-19T01:05:07;5.85;;;5.00;;
20170;SDS011;10245;51.344;6.620;2023-11-19T01:07:32;5.57;;;4.72;;
20170;SDS011;10245;51.344;6.620;2023-11-19T01:09:55;6.72;;;5.53;;
20170;SDS011;10245;51.344;6.620;2023-11-19T01:12:19;6.63;;;4.60;;
20170;SDS011;10245;51.344;6.620;2023-11-19T01:14:42;8.20;;;4.63;;
20170;SDS011;10245;51.344;6.620;2023-11-19T01:17:05;4.80;;;4.25;;
20170;SDS011;10245;51.344;6.620;2023-11-19T01:19:30;7.65;;;4.70;;
20170;SDS011;10245;51.344;6.620;2023-11-19T01:21:54;4.93;;;4.13;;
20170;SDS011;10245;51.344;6.620;2023-11-19T01:24:19;4.28;;;3.88;;
20170;SDS011;10245;51.344;6.620;2023-11-19T01:26:43;4.43;;;3.75;;
20170;SDS011;10245;51.344;6.620;2023-11-19T01:29:07;3.80;;;3.50;;
20170;SDS011;10245;51.344;6.620;2023-11-19T01:31:30;5.97;;;4.22;;
20170;SDS011;10245;51.344;6.620;2023-11-19T01:33:55;5.28;;;4.03;;
20170;SDS011;10245;51.344;6.620;2023-11-19T01:36:18;7.03;;;3.55;;
20170;SDS011;10245;51.344;6.620;2023-11-19T01:38:42;4.72;;;3.38;;
20170;SDS011;10245;51.344;6.620;2023-11-19T01:41:07;3.70;;;3.40;;
20170;SDS011;10245;51.344;6.620;2023-11-19T01:43:31;5.55;;;3.65;;
20170;SDS011;10245;51.344;6.620;2023-11-19T01:45:57;4.82;;;3.72;;
20170;SDS011;10245;51.344;6.620;2023-11-19T01:48:20;4.03;;;3.45;;
20170;SDS011;10245;51.344;6.620;2023-11-19T01:50:43;5.30;;;3.22;;
20170;SDS011;10245;51.344;6.620;2023-11-19T01:53:08;6.35;;;2.83;;
20170;SDS011;10245;51.344;6.620;2023-11-19T01:55:31;6.97;;;2.70;;
20170;SDS011;10245;51.344;6.620;2023-11-19T01:57:57;4.95;;;2.80;;
20170;SDS011;10245;51.344;6.620;2023-11-19T02:00:24;5.57;;;2.42;;
20170;SDS011;10245;51.344;6.620;2023-11-19T02:02:46;3.58;;;2.28;;
20170;SDS011;10245;51.344;6.620;2023-11-19T02:05:11;6.25;;;2.85;;
20170;SDS011;10245;51.344;6.620;2023-11-19T02:07:36;4.22;;;2.42;;
20170;SDS011;10245;51.344;6.620;2023-11-19T02:10:00;8.77;;;2.72;;
20170;SDS011;10245;51.344;6.620;2023-11-19T02:12:27;6.57;;;2.60;;
20170;SDS011;10245;51.344;6.620;2023-11-19T02:14:52;6.72;;;2.70;;
20170;SDS011;10245;51.344;6.620;2023-11-19T02:17:25;6.28;;;3.03;;
20170;SDS011;10245;51.344;6.620;2023-11-19T02:19:49;6.93;;;2.97;;
20170;SDS011;10245;51.344;6.620;2023-11-19T02:22:12;10.15;;;2.90;;
20170;SDS011;10245;51.344;6.620;2023-11-19T02:24:36;10.70;;;2.75;;
20170;SDS011;10245;51.344;6.620;2023-11-19T02:27:02;6.40;;;2.83;;
20170;SDS011;10245;51.344;6.620;2023-11-19T02:29:32;6.53;;;2.90;;
20170;SDS011;10245;51.344;6.620;2023-11-19T02:31:56;7.65;;;2.30;;
20170;SDS011;10245;51.344;6.620;2023-11-19T02:34:20;8.45;;;2.90;;
20170;SDS011;10245;51.344;6.620;2023-11-19T02:36:44;8.65;;;2.92;;
20170;SDS011;10245;51.344;6.620;2023-11-19T02:39:09;8.23;;;2.53;;
20170;SDS011;10245;51.344;6.620;2023-11-19T02:41:33;8.98;;;2.60;;
20170;SDS011;10245;51.344;6.620;2023-11-19T02:43:57;9.65;;;2.92;;
20170;SDS011;10245;51.344;6.620;2023-11-19T02:46:22;10.68;;;3.03;;
20170;SDS011;10245;51.344;6.620;2023-11-19T02:48:45;7.85;;;2.50;;
20170;SDS011;10245;51.344;6.620;2023-11-19T02:51:08;6.82;;;3.15;;
20170;SDS011;10245;51.344;6.620;2023-11-19T02:53:32;8.98;;;3.03;;
20170;SDS011;10245;51.344;6.620;2023-11-19T02:55:56;8.88;;;3.05;;
20170;SDS011;10245;51.344;6.620;2023-11-19T02:58:23;11.75;;;3.22;;
20170;SDS011;10245;51.344;6.620;2023-11-19T03:00:49;14.30;;;3.65;;
20170;SDS011;10245;51.344;6.620;2023-11-19T03:03:20;13.13;;;3.97;;
20170;SDS011;10245;51.344;6.620;2023-11-19T03:05:44;10.88;;;3.53;;
20170;SDS011;10245;51.344;6.620;2023-11-19T03:08:08;17.15;;;4.20;;
20170;SDS011;10245;51.344;6.620;2023-11-19T03:10:44;17.05;;;4.03;;
20170;SDS011;10245;51.344;6.620;2023-11-19T03:15:36;16.45;;;3.70;;
20170;SDS011;10245;51.344;6.620;2023-11-19T03:17:59;11.77;;;3.58;;
20170;SDS011;10245;51.344;6.620;2023-11-19T03:20:24;17.80;;;4.25;;
20170;SDS011;10245;51.344;6.620;2023-11-19T03:22:49;16.08;;;3.90;;
20170;SDS011;10245;51.344;6.620;2023-11-19T03:25:13;23.23;;;4.85;;
20170;SDS011;10245;51.344;6.620;2023-11-19T03:27:36;19.63;;;5.03;;
20170;SDS011;10245;51.344;6.620;2023-11-19T03:30:01;17.83;;;5.45;;
20170;SDS011;10245;51.344;6.620;2023-11-19T03:32:25;19.10;;;4.80;;
20170;SDS011;10245;51.344;6.620;2023-11-19T03:34:49;18.17;;;4.28;;
20170;SDS011;10245;51.344;6.620;2023-11-19T03:37:14;13.98;;;3.92;;
20170;SDS011;10245;51.344;6.620;2023-11-19T03:39:39;18.30;;;4.40;;
20170;SDS011;10245;51.344;6.620;2023-11-19T03:42:03;17.67;;;4.20;;
20170;SDS011;10245;51.344;6.620;2023-11-19T03:44:27;18.55;;;4.93;;
20170;SDS011;10245;51.344;6.620;2023-11-19T03:46:50;16.08;;;3.65;;
20170;SDS011;10245;51.344;6.620;2023-11-19T03:49:13;15.02;;;3.95;;
20170;SDS011;10245;51.344;6.620;2023-11-19T03:51:37;17.33;;;4.30;;
20170;SDS011;10245;51.344;6.620;2023-11-19T03:54:02;19.27;;;4.47;;
20170;SDS011;10245;51.344;6.620;2023-11-19T03:56:27;19.10;;;4.65;;
20170;SDS011;10245;51.344;6.620;2023-11-19T03:58:52;19.10;;;4.05;;
20170;SDS011;10245;51.344;6.620;2023-11-19T04:01:15;26.73;;;5.07;;
20170;SDS011;10245;51.344;6.620;2023-11-19T04:03:39;21.67;;;5.18;;
20170;SDS011;10245;51.344;6.620;2023-11-19T04:06:06;17.42;;;4.22;;
20170;SDS011;10245;51.344;6.620;2023-11-19T04:08:30;23.13;;;4.35;;
20170;SDS011;10245;51.344;6.620;2023-11-19T04:10:54;16.77;;;4.53;;
20170;SDS011;10245;51.344;6.620;2023-11-19T04:13:17;20.77;;;5.03;;
20170;SDS011;10245;51.344;6.620;2023-11-19T04:15:41;22.08;;;4.53;;
20170;SDS011;10245;51.344;6.620;2023-11-19T04:18:05;25.88;;;5.15;;
20170;SDS011;10245;51.344;6.620;2023-11-19T04:20:31;24.42;;;5.70;;
20170;SDS011;10245;51.344;6.620;2023-11-19T04:22:54;20.88;;;5.40;;
20170;SDS011;10245;51.344;6.620;2023-11-19T04:25:18;21.77;;;5.13;;
20170;SDS011;10245;51.344;6.620;2023-11-19T04:27:44;22.52;;;4.80;;
20170;SDS011;10245;51.344;6.620;2023-11-19T04:30:10;27.50;;;5.38;;
20170;SDS011;10245;51.344;6.620;2023-11-19T04:32:33;22.95;;;5.47;;
20170;SDS011;10245;51.344;6.620;2023-11-19T04:34:57;28.45;;;5.47;;
20170;SDS011;10245;51.344;6.620;2023-11-19T04:37:20;25.05;;;5.28;;
20170;SDS011;10245;51.344;6.620;2023-11-19T04:39:44;25.10;;;5.47;;
20170;SDS011;10245;51.344;6.620;2023-11-19T04:42:07;26.92;;;5.72;;
20170;SDS011;10245;51.344;6.620;2023-11-19T04:44:32;35.70;;;6.05;;
20170;SDS011;10245;51.344;6.620;2023-11-19T04:46:56;29.02;;;5.72;;
20170;SDS011;10245;51.344;6.620;2023-11-19T04:49:19;23.77;;;5.60;;
20170;SDS011;10245;51.344;6.620;2023-11-19T04:51:44;28.58;;;5.75;;
20170;SDS011;10245;51.344;6.620;2023-11-19T04:54:09;25.55;;;5.40;;
20170;SDS011;10245;51.344;6.620;2023-11-19T04:56:32;27.13;;;5.53;;
20170;SDS011;10245;51.344;6.620;2023-11-19T04:58:56;23.02;;;5.65;;
20170;SDS011;10245;51.344;6.620;2023-11-19T05:01:21;22.83;;;5.70;;
20170;SDS011;10245;51.344;6.620;2023-11-19T05:03:44;26.88;;;5.88;;
20170;SDS011;10245;51.344;6.620;2023-11-19T05:06:08;25.35;;;5.35;;
20170;SDS011;10245;51.344;6.620;2023-11-19T05:08:31;28.00;;;4.95;;
20170;SDS011;10245;51.344;6.620;2023-11-19T05:10:54;27.42;;;5.85;;
20170;SDS011;10245;51.344;6.620;2023-11-19T05:13:19;19.17;;;4.93;;
20170;SDS011;10245;51.344;6.620;2023-11-19T05:15:42;26.65;;;5.65;;
20170;SDS011;10245;51.344;6.620;2023-11-19T05:18:07;29.52;;;5.72;;
20170;SDS011;10245;51.344;6.620;2023-11-19T05:20:31;25.20;;;5.65;;
20170;SDS011;10245;51.344;6.620;2023-11-19T05:22:54;22.65;;;5.57;;
20170;SDS011;10245;51.344;6.620;2023-11-19T05:25:17;22.60;;;4.75;;
20170;SDS011;10245;51.344;6.620;2023-11-19T05:27:41;23.92;;;5.63;;
20170;SDS011;10245;51.344;6.620;2023-11-19T05:30:05;27.83;;;5.80;;
20170;SDS011;10245;51.344;6.620;2023-11-19T05:32:31;29.27;;;5.63;;
20170;SDS011;10245;51.344;6.620;2023-11-19T05:34:56;28.88;;;5.80;;
20170;SDS011;10245;51.344;6.620;2023-11-19T05:37:19;30.75;;;6.50;;
20170;SDS011;10245;51.344;6.620;2023-11-19T05:39:42;28.63;;;5.35;;
20170;SDS011;10245;51.344;6.620;2023-11-19T05:42:09;28.80;;;6.22;;
20170;SDS011;10245;51.344;6.620;2023-11-19T05:44:32;25.65;;;5.78;;
20170;SDS011;10245;51.344;6.620;2023-11-19T05:46:58;31.20;;;5.78;;
20170;SDS011;10245;51.344;6.620;2023-11-19T05:49:22;24.15;;;6.05;;
20170;SDS011;10245;51.344;6.620;2023-11-19T05:51:46;28.17;;;5.60;;
20170;SDS011;10245;51.344;6.620;2023-11-19T05:54:10;19.95;;;5.45;;
20170;SDS011;10245;51.344;6.620;2023-11-19T05:56:35;30.30;;;6.10;;
20170;SDS011;10245;51.344;6.620;2023-11-19T05:58:59;30.92;;;5.93;;
20170;SDS011;10245;51.344;6.620;2023-11-19T06:01:24;26.10;;;5.68;;
20170;SDS011;10245;51.344;6.620;2023-11-19T06:03:49;29.77;;;5.90;;
20170;SDS011;10245;51.344;6.620;2023-11-19T06:06:12;28.42;;;5.30;;
20170;SDS011;10245;51.344;6.620;2023-11-19T06:08:37;25.05;;;5.28;;
20170;SDS011;10245;51.344;6.620;2023-11-19T06:11:00;20.67;;;5.07;;
20170;SDS011;10245;51.344;6.620;2023-11-19T06:13:23;24.73;;;5.47;;
20170;SDS011;10245;51.344;6.620;2023-11-19T06:15:47;24.27;;;5.80;;
20170;SDS011;10245;51.344;6.620;2023-11-19T06:18:12;33.60;;;6.22;;
20170;SDS011;10245;51.344;6.620;2023-11-19T06:20:35;21.63;;;5.57;;
20170;SDS011;10245;51.344;6.620;2023-11-19T06:23:01;26.23;;;5.80;;
20170;SDS011;10245;51.344;6.620;2023-11-19T06:25:26;29.67;;;6.53;;
20170;SDS011;10245;51.344;6.620;2023-11-19T06:27:49;26.83;;;5.60;;
20170;SDS011;10245;51.344;6.620;2023-11-19T06:30:13;25.17;;;5.45;;
20170;SDS011;10245;51.344;6.620;2023-11-19T06:32:36;28.40;;;5.75;;
20170;SDS011;10245;51.344;6.620;2023-11-19T06:35:00;29.65;;;6.45;;
20170;SDS011;10245;51.344;6.620;2023-11-19T06:37:25;28.95;;;6.22;;
20170;SDS011;10245;51.344;6.620;2023-11-19T06:39:49;26.45;;;5.50;;
20170;SDS011;10245;51.344;6.620;2023-11-19T06:42:14;25.38;;;5.80;;
20170;SDS011;10245;51.344;6.620;2023-11-19T06:44:37;25.13;;;5.90;;
20170;SDS011;10245;51.344;6.620;2023-11-19T06:47:00;27.77;;;6.28;;
20170;SDS011;10245;51.344;6.620;2023-11-19T06:49:24;28.20;;;6.10;;
20170;SDS011;10245;51.344;6.620;2023-11-19T06:51:48;25.98;;;6.15;;
20170;SDS011;10245;51.344;6.620;2023-11-19T06:54:11;34.25;;;6.57;;
20170;SDS011;10245;51.344;6.620;2023-11-19T06:56:35;29.10;;;5.93;;
20170;SDS011;10245;51.344;6.620;2023-11-19T06:58:59;26.92;;;5.70;;
20170;SDS011;10245;51.344;6.620;2023-11-19T07:01:23;31.17;;;6.00;;
20170;SDS011;10245;51.344;6.620;2023-11-19T07:03:46;27.30;;;6.32;;
20170;SDS011;10245;51.344;6.620;2023-11-19T07:06:11;36.25;;;6.20;;
20170;SDS011;10245;51.344;6.620;2023-11-19T07:08:36;29.45;;;6.80;;
20170;SDS011;10245;51.344;6.620;2023-11-19T07:11:00;26.70;;;5.95;;
20170;SDS011;10245;51.344;6.620;2023-11-19T07:13:23;23.33;;;5.95;;
20170;SDS011;10245;51.344;6.620;2023-11-19T07:15:50;28.63;;;6.00;;
20170;SDS011;10245;51.344;6.620;2023-11-19T07:18:14;33.45;;;6.47;;
20170;SDS011;10245;51.344;6.620;2023-11-19T07:20:38;32.05;;;6.05;;
20170;SDS011;10245;51.344;6.620;2023-11-19T07:23:01;29.15;;;6.28;;
20170;SDS011;10245;51.344;6.620;2023-11-19T07:25:25;30.20;;;6.30;;
20170;SDS011;10245;51.344;6.620;2023-11-19T07:27:48;26.83;;;6.40;;
20170;SDS011;10245;51.344;6.620;2023-11-19T07:30:12;27.48;;;6.03;;
20170;SDS011;10245;51.344;6.620;2023-11-19T07:32:38;28.73;;;6.03;;
20170;SDS011;10245;51.344;6.620;2023-11-19T07:35:01;28.00;;;6.00;;
20170;SDS011;10245;51.344;6.620;2023-11-19T07:37:26;33.90;;;7.20;;
20170;SDS011;10245;51.344;6.620;2023-11-19T07:39:50;30.77;;;5.85;;
20170;SDS011;10245;51.344;6.620;2023-11-19T07:42:13;23.48;;;5.63;;
20170;SDS011;10245;51.344;6.620;2023-11-19T07:44:36;32.50;;;6.00;;
20170;SDS011;10245;51.344;6.620;2023-11-19T07:47:00;32.55;;;6.03;;
20170;SDS011;10245;51.344;6.620;2023-11-19T07:49:26;35.20;;;6.60;;
20170;SDS011;10245;51.344;6.620;2023-11-19T07:51:49;29.10;;;6.43;;
20170;SDS011;10245;51.344;6.620;2023-11-19T07:54:13;33.00;;;6.32;;
20170;SDS011;10245;51.344;6.620;2023-11-19T07:56:36;30.55;;;6.50;;
20170;SDS011;10245;51.344;6.620;2023-11-19T07:59:00;35.42;;;7.07;;
20170;SDS011;10245;51.344;6.620;2023-11-19T08:01:23;34.15;;;7.10;;
20170;SDS011;10245;51.344;6.620;2023-11-19T08:03:47;35.03;;;7.10;;
20170;SDS011;10245;51.344;6.620;2023-11-19T08:06:14;32.47;;;7.28;;
20170;SDS011;10245;51.344;6.620;2023-11-19T08:08:38;33.13;;;7.05;;
20170;SDS011;10245;51.344;6.620;2023-11-19T08:11:01;37.90;;;7.70;;
20170;SDS011;10245;51.344;6.620;2023-11-19T08:13:26;31.08;;;6.55;;
20170;SDS011;10245;51.344;6.620;2023-11-19T08:15:50;31.20;;;7.13;;
20170;SDS011;10245;51.344;6.620;2023-11-19T08:18:13;38.88;;;7.80;;
20170;SDS011;10245;51.344;6.620;2023-11-19T08:20:36;33.03;;;7.45;;
20170;SDS011;10245;51.344;6.620;2023-11-19T08:23:01;39.70;;;6.90;;
20170;SDS011;10245;51.344;6.620;2023-11-19T08:25:26;36.10;;;7.30;;
20170;SDS011;10245;51.344;6.620;2023-11-19T08:27:49;29.33;;;6.63;;
20170;SDS011;10245;51.344;6.620;2023-11-19T08:30:14;29.70;;;6.75;;
20170;SDS011;10245;51.344;6.620;2023-11-19T08:32:37;33.75;;;7.47;;
20170;SDS011;10245;51.344;6.620;2023-11-19T08:35:01;29.73;;;6.60;;
20170;SDS011;10245;51.344;6.620;2023-11-19T08:37:25;30.50;;;6.95;;
20170;SDS011;10245;51.344;6.620;2023-11-19T08:39:50;32.38;;;6.53;;
20170;SDS011;10245;51.344;6.620;2023-11-19T08:42:13;37.45;;;7.25;;
20170;SDS011;10245;51.344;6.620;2023-11-19T08:44:37;35.45;;;6.82;;
20170;SDS011;10245;51.344;6.620;2023-11-19T08:47:00;35.25;;;6.82;;
20170;SDS011;10245;51.344;6.620;2023-11-19T08:49:24;32.58;;;7.00;;
20170;SDS011;10245;51.344;6.620;2023-11-19T08:51:47;30.27;;;6.85;;
20170;SDS011;10245;51.344;6.620;2023-11-19T08:54:11;27.65;;;6.35;;
20170;SDS011;10245;51.344;6.620;2023-11-19T08:56:36;25.77;;;6.40;;
20170;SDS011;10245;51.344;6.620;2023-11-19T08:59:00;29.30;;;6.93;;
20170;SDS011;10245;51.344;6.620;2023-11-19T09:01:24;25.00;;;6.15;;
20170;SDS011;10245;51.344;6.620;2023-11-19T09:03:47;31.45;;;6.47;;
20170;SDS011;10245;51.344;6.620;2023-11-19T09:06:11;33.08;;;7.10;;
20170;SDS011;10245;51.344;6.620;2023-11-19T09:08:34;30.70;;;6.40;;
20170;SDS011;10245;51.344;6.620;2023-11-19T09:10:57;32.75;;;6.50;;
20170;SDS011;10245;51.344;6.620;2023-11-19T09:13:22;23.73;;;6.18;;
20170;SDS011;10245;51.344;6.620;2023-11-19T09:15:45;28.88;;;7.38;;
20170;SDS011;10245;51.344;6.620;2023-11-19T09:18:08;35.00;;;7.93;;
20170;SDS011;10245;51.344;6.620;2023-11-19T09:20:32;36.78;;;7.45;;
20170;SDS011;10245;51.344;6.620;2023-11-19T09:22:59;33.30;;;6.90;;
20170;SDS011;10245;51.344;6.620;2023-11-19T09:25:23;31.90;;;6.40;;
20170;SDS011;10245;51.344;6.620;2023-11-19T09:27:47;23.23;;;6.43;;
20170;SDS011;10245;51.344;6.620;2023-11-19T09:30:11;38.33;;;7.28;;
20170;SDS011;10245;51.344;6.620;2023-11-19T09:32:36;33.70;;;7.32;;
20170;SDS011;10245;51.344;6.620;2023-11-19T09:35:00;30.20;;;6.63;;
20170;SDS011;10245;51.344;6.620;2023-11-19T09:37:23;37.92;;;8.45;;
20170;SDS011;10245;51.344;6.620;2023-11-19T09:39:47;34.60;;;6.68;;
20170;SDS011;10245;51.344;6.620;2023-11-19T09:42:10;34.17;;;7.25;;
20170;SDS011;10245;51.344;6.620;2023-11-19T09:44:35;40.90;;;7.35;;
20170;SDS011;10245;51.344;6.620;2023-11-19T09:47:01;31.38;;;7.60;;
20170;SDS011;10245;51.344;6.620;2023-11-19T09:49:25;28.67;;;6.93;;
20170;SDS011;10245;51.344;6.620;2023-11-19T09:51:52;32.95;;;6.95;;
20170;SDS011;10245;51.344;6.620;2023-11-19T09:54:16;33.50;;;7.38;;
20170;SDS011;10245;51.344;6.620;2023-11-19T09:56:39;33.58;;;7.13;;
20170;SDS011;10245;51.344;6.620;2023-11-19T09:59:03;30.58;;;6.75;;
20170;SDS011;10245;51.344;6.620;2023-11-19T10:01:27;28.02;;;6.85;;
20170;SDS011;10245;51.344;6.620;2023-11-19T10:06:43;29.60;;;6.65;;
20170;SDS011;10245;51.344;6.620;2023-11-19T10:09:06;27.92;;;7.15;;
20170;SDS011;10245;51.344;6.620;2023-11-19T10:11:30;35.67;;;6.93;;
20170;SDS011;10245;51.344;6.620;2023-11-19T10:13:53;31.25;;;6.85;;
20170;SDS011;10245;51.344;6.620;2023-11-19T10:16:17;33.72;;;6.88;;
20170;SDS011;10245;51.344;6.620;2023-11-19T10:18:42;33.55;;;7.13;;
20170;SDS011;10245;51.344;6.620;2023-11-19T10:21:09;28.50;;;7.03;;
20170;SDS011;10245;51.344;6.620;2023-11-19T10:23:47;37.25;;;6.93;;
20170;SDS011;10245;51.344;6.620;2023-11-19T10:26:13;30.85;;;6.57;;
20170;SDS011;10245;51.344;6.620;2023-11-19T10:28:38;33.33;;;7.32;;
20170;SDS011;10245;51.344;6.620;2023-11-19T10:31:04;28.17;;;6.47;;
20170;SDS011;10245;51.344;6.620;2023-11-19T10:33:29;31.23;;;6.32;;
20170;SDS011;10245;51.344;6.620;2023-11-19T10:35:53;33.72;;;7.32;;
20170;SDS011;10245;51.344;6.620;2023-11-19T10:38:22;28.70;;;6.55;;
20170;SDS011;10245;51.344;6.620;2023-11-19T10:40:46;31.33;;;6.53;;
20170;SDS011;10245;51.344;6.620;2023-11-19T10:43:11;32.67;;;7.22;;
20170;SDS011;10245;51.344;6.620;2023-11-19T10:45:35;26.95;;;6.13;;
20170;SDS011;10245;51.344;6.620;2023-11-19T10:48:00;27.27;;;6.45;;
20170;SDS011;10245;51.344;6.620;2023-11-19T10:50:28;27.42;;;5.63;;
20170;SDS011;10245;51.344;6.620;2023-11-19T10:52:51;29.77;;;6.68;;
20170;SDS011;10245;51.344;6.620;2023-11-19T10:55:22;23.95;;;6.88;;
20170;SDS011;10245;51.344;6.620;2023-11-19T10:57:51;28.23;;;5.88;;
20170;SDS011;10245;51.344;6.620;2023-11-19T11:00:15;29.15;;;6.35;;
20170;SDS011;10245;51.344;6.620;2023-11-19T11:02:42;24.50;;;5.65;;
20170;SDS011;10245;51.344;6.620;2023-11-19T11:05:08;29.60;;;6.22;;
20170;SDS011;10245;51.344;6.620;2023-11-19T11:07:34;29.60;;;6.72;;
20170;SDS011;10245;51.344;6.620;2023-11-19T11:10:02;23.52;;;6.10;;
20170;SDS011;10245;51.344;6.620;2023-11-19T11:12:29;23.50;;;6.47;;
20170;SDS011;10245;51.344;6.620;2023-11-19T11:14:57;25.20;;;6.47;;
20170;SDS011;10245;51.344;6.620;2023-11-19T11:17:21;31.58;;;5.85;;
20170;SDS011;10245;51.344;6.620;2023-11-19T11:19:49;26.15;;;6.80;;
20170;SDS011;10245;51.344;6.620;2023-11-19T11:22:12;28.65;;;7.38;;
20170;SDS011;10245;51.344;6.620;2023-11-19T11:25:03;24.33;;;6.10;;
20170;SDS011;10245;51.344;6.620;2023-11-19T11:27:56;29.17;;;5.57;;
20170;SDS011;10245;51.344;6.620;2023-11-19T11:30:31;29.00;;;6.50;;
20170;SDS011;10245;51.344;6.620;2023-11-19T11:33:13;26.80;;;6.22;;
20170;SDS011;10245;51.344;6.620;2023-11-19T11:35:50;30.42;;;6.10;;
20170;SDS011;10245;51.344;6.620;2023-11-19T11:38:21;26.92;;;5.53;;
20170;SDS011;10245;51.344;6.620;2023-11-19T11:43:46;17.52;;;5.28;;
20170;SDS011;10245;51.344;6.620;2023-11-19T11:49:22;21.52;;;5.38;;
20170;SDS011;10245;51.344;6.620;2023-11-19T11:51:58;23.58;;;5.53;;
20170;SDS011;10245;51.344;6.620;2023-11-19T11:54:26;22.88;;;5.93;;
20170;SDS011;10245;51.344;6.620;2023-11-19T11:57:00;22.23;;;5.05;;
20170;SDS011;10245;51.344;6.620;2023-11-19T11:59:40;23.58;;;5.97;;
20170;SDS011;10245;51.344;6.620;2023-11-19T12:02:09;27.63;;;5.50;;
20170;SDS011;10245;51.344;6.620;2023-11-19T12:04:34;24.02;;;6.15;;
20170;SDS011;10245;51.344;6.620;2023-11-19T12:07:03;26.83;;;5.93;;
20170;SDS011;10245;51.344;6.620;2023-11-19T12:09:27;18.42;;;5.68;;
20170;SDS011;10245;51.344;6.620;2023-11-19T12:11:54;23.67;;;4.95;;
20170;SDS011;10245;51.344;6.620;2023-11-19T12:17:40;27.05;;;5.85;;
20170;SDS011;10245;51.344;6.620;2023-11-19T12:20:07;20.33;;;4.88;;
20170;SDS011;10245;51.344;6.620;2023-11-19T12:22:32;23.42;;;4.88;;
20170;SDS011;10245;51.344;6.620;2023-11-19T12:24:56;26.42;;;5.72;;
20170;SDS011;10245;51.344;6.620;2023-11-19T12:27:19;23.70;;;5.20;;
20170;SDS011;10245;51.344;6.620;2023-11-19T12:29:44;21.45;;;4.97;;
20170;SDS011;10245;51.344;6.620;2023-11-19T12:32:09;18.17;;;4.60;;
20170;SDS011;10245;51.344;6.620;2023-11-19T12:34:36;23.85;;;5.45;;
20170;SDS011;10245;51.344;6.620;2023-11-19T12:37:02;21.73;;;5.32;;
20170;SDS011;10245;51.344;6.620;2023-11-19T12:39:29;17.45;;;5.45;;
20170;SDS011;10245;51.344;6.620;2023-11-19T12:41:52;12.38;;;3.88;;
20170;SDS011;10245;51.344;6.620;2023-11-19T12:44:16;14.20;;;4.05;;
20170;SDS011;10245;51.344;6.620;2023-11-19T12:46:39;21.00;;;4.82;;
20170;SDS011;10245;51.344;6.620;2023-11-19T12:49:04;21.55;;;4.50;;
20170;SDS011;10245;51.344;6.620;2023-11-19T12:51:30;26.33;;;5.07;;
20170;SDS011;10245;51.344;6.620;2023-11-19T12:53:54;24.73;;;4.63;;
20170;SDS011;10245;51.344;6.620;2023-11-19T12:56:19;23.95;;;5.40;;
20170;SDS011;10245;51.344;6.620;2023-11-19T12:58:43;18.60;;;4.97;;
20170;SDS011;10245;51.344;6.620;2023-11-19T13:01:07;20.80;;;5.38;;
20170;SDS011;10245;51.344;6.620;2023-11-19T13:03:31;24.52;;;5.35;;
20170;SDS011;10245;51.344;6.620;2023-11-19T13:06:02;22.95;;;5.03;;
20170;SDS011;10245;51.344;6.620;2023-11-19T13:08:26;25.77;;;5.97;;
20170;SDS011;10245;51.344;6.620;2023-11-19T13:10:51;21.55;;;5.30;;
20170;SDS011;10245;51.344;6.620;2023-11-19T13:13:15;27.05;;;6.55;;
20170;SDS011;10245;51.344;6.620;2023-11-19T13:15:38;21.92;;;5.13;;
20170;SDS011;10245;51.344;6.620;2023-11-19T13:18:02;21.77;;;5.03;;
20170;SDS011;10245;51.344;6.620;2023-11-19T13:20:25;19.98;;;5.53;;
20170;SDS011;10245;51.344;6.620;2023-11-19T13:22:58;20.15;;;5.05;;
20170;SDS011;10245;51.344;6.620;2023-11-19T13:25:23;24.42;;;4.93;;
20170;SDS011;10245;51.344;6.620;2023-11-19T13:27:46;21.42;;;5.05;;
20170;SDS011;10245;51.344;6.620;2023-11-19T13:30:10;21.98;;;4.68;;
20170;SDS011;10245;51.344;6.620;2023-11-19T13:32:38;25.73;;;5.28;;
20170;SDS011;10245;51.344;6.620;2023-11-19T13:35:01;26.25;;;5.32;;
20170;SDS011;10245;51.344;6.620;2023-11-19T13:37:27;18.30;;;4.40;;
20170;SDS011;10245;51.344;6.620;2023-11-19T13:39:52;20.33;;;5.18;;
20170;SDS011;10245;51.344;6.620;2023-11-19T13:42:15;27.00;;;5.47;;
20170;SDS011;10245;51.344;6.620;2023-11-19T13:44:39;23.52;;;5.22;;
20170;SDS011;10245;51.344;6.620;2023-11-19T13:47:02;21.80;;;5.32;;
20170;SDS011;10245;51.344;6.620;2023-11-19T13:49:26;20.98;;;5.38;;
20170;SDS011;10245;51.344;6.620;2023-11-19T13:51:49;19.08;;;4.45;;
20170;SDS011;10245;51.344;6.620;2023-11-19T13:54:15;21.17;;;5.30;;
20170;SDS011;10245;51.344;6.620;2023-11-19T13:56:42;21.17;;;4.93;;
20170;SDS011;10245;51.344;6.620;2023-11-19T13:59:06;21.27;;;5.00;;
20170;SDS011;10245;51.344;6.620;2023-11-19T14:01:30;20.05;;;4.88;;
20170;SDS011;10245;51.344;6.620;2023-11-19T14:03:54;26.15;;;5.20;;
20170;SDS011;10245;51.344;6.620;2023-11-19T14:06:17;27.77;;;5.93;;
20170;SDS011;10245;51.344;6.620;2023-11-19T14:08:41;24.65;;;6.43;;
20170;SDS011;10245;51.344;6.620;2023-11-19T14:11:05;23.75;;;6.13;;
20170;SDS011;10245;51.344;6.620;2023-11-19T14:13:30;21.50;;;4.93;;
20170;SDS011;10245;51.344;6.620;2023-11-19T14:15:54;22.27;;;5.00;;
20170;SDS011;10245;51.344;6.620;2023-11-19T14:18:18;22.63;;;5.38;;
20170;SDS011;10245;51.344;6.620;2023-11-19T14:20:41;19.13;;;5.40;;
20170;SDS011;10245;51.344;6.620;2023-11-19T14:23:05;24.45;;;5.07;;
20170;SDS011;10245;51.344;6.620;2023-11-19T14:25:29;20.95;;;5.07;;
20170;SDS011;10245;51.344;6.620;2023-11-19T14:27:53;25.77;;;5.03;;
20170;SDS011;10245;51.344;6.620;2023-11-19T14:30:17;25.00;;;5.15;;
20170;SDS011;10245;51.344;6.620;2023-11-19T14:32:41;23.80;;;5.97;;
20170;SDS011;10245;51.344;6.620;2023-11-19T14:35:07;30.08;;;6.07;;
20170;SDS011;10245;51.344;6.620;2023-11-19T14:37:31;23.90;;;5.32;;